createdAt,value
2022-07-29T00:00:22.989Z,99816.69
2022-07-29T00:02:50.439Z,99811.41
2022-07-29T00:05:17.884Z,99793.66
2022-07-29T00:07:45.333Z,99795.41
2022-07-29T00:10:13.485Z,99785.69
2022-07-29T00:12:40.850Z,99782.16
2022-07-29T00:15:09.222Z,99782.19
2022-07-29T00:17:36.542Z,99792.03
2022-07-29T00:20:05.351Z,99796.44
2022-07-29T00:22:32.750Z,99797.31
2022-07-29T00:25:00.142Z,99806.16
2022-07-29T00:27:27.423Z,99802.59
2022-07-29T00:29:54.762Z,99807.03
2022-07-29T00:32:22.237Z,99815.03
2022-07-29T00:35:08.383Z,99811.47
2022-07-29T00:37:35.608Z,99815.94
2022-07-29T00:40:03.448Z,99818.63
2022-07-29T00:42:30.932Z,99822.16
2022-07-29T00:44:58.367Z,99821.34
2022-07-29T00:47:25.714Z,99822.25
2022-07-29T00:49:53.116Z,99812.53
2022-07-29T00:52:21.933Z,99803.66
2022-07-29T00:54:49.235Z,99804.56
2022-07-29T00:57:16.607Z,99819.66
2022-07-29T00:59:44.048Z,99816.19
2022-07-29T01:02:11.737Z,99816.22
2022-07-29T01:04:39.568Z,99808.16
2022-07-29T01:07:08.120Z,99801.88
2022-07-29T01:09:46.342Z,99809.81
2022-07-29T01:12:29.894Z,99798.31
2022-07-29T01:14:57.546Z,99798.34
2022-07-29T01:17:40.302Z,99791.25
2022-07-29T01:20:56.694Z,99789.44
2022-07-29T01:24:04.793Z,99783.22
2022-07-29T01:27:35.159Z,99789.41
2022-07-29T01:30:05.428Z,99784.09
2022-07-29T01:32:40.477Z,99777.91
2022-07-29T01:35:24.086Z,99770.81
2022-07-29T01:38:06.790Z,99766.34
2022-07-29T01:40:55.449Z,99762.84
2022-07-29T01:43:53.141Z,99767.25
2022-07-29T01:46:39.765Z,99775.22
2022-07-29T01:49:17.144Z,99785.88
2022-07-29T01:52:04.951Z,99796.53
2022-07-29T01:54:46.818Z,99801.00
2022-07-29T01:57:21.233Z,99800.16
2022-07-29T02:02:19.488Z,99790.38
2022-07-29T02:04:50.727Z,99781.50
2022-07-29T02:07:23.208Z,99793.00
2022-07-29T02:09:53.011Z,99791.25
2022-07-29T02:12:23.204Z,99809.91
2022-07-29T02:14:54.958Z,99816.19
2022-07-29T02:17:34.002Z,99807.34
2022-07-29T02:20:05.222Z,99815.31
2022-07-29T02:22:38.779Z,99807.31
2022-07-29T02:25:13.787Z,99798.44
2022-07-29T02:27:43.743Z,99795.69
2022-07-29T02:30:13.381Z,99788.56
2022-07-29T02:32:42.747Z,99792.97
2022-07-29T02:35:13.933Z,99792.09
2022-07-29T02:37:44.728Z,99798.28
2022-07-29T02:40:15.457Z,99808.09
2022-07-29T02:42:45.257Z,99799.22
2022-07-29T02:45:12.730Z,99796.53
2022-07-29T02:47:50.860Z,99802.78
2022-07-29T02:50:44.969Z,99798.31
2022-07-29T02:53:23.815Z,99797.47
2022-07-29T02:56:00.726Z,99788.56
2022-07-29T02:58:34.945Z,99805.38
2022-07-29T03:01:19.325Z,99803.56
2022-07-29T03:03:53.347Z,99812.47
2022-07-29T03:06:37.423Z,99808.09
2022-07-29T03:09:13.020Z,99804.56
2022-07-29T03:11:49.606Z,99810.00
2022-07-29T03:14:21.271Z,99808.22
2022-07-29T03:16:50.958Z,99802.91
2022-07-29T03:19:21.088Z,99808.25
2022-07-29T03:21:49.397Z,99798.47
2022-07-29T03:24:36.410Z,99805.59
2022-07-29T03:27:05.301Z,99811.78
2022-07-29T03:29:34.509Z,99811.75
2022-07-29T03:32:08.246Z,99807.22
2022-07-29T03:34:38.943Z,99813.44
2022-07-29T03:37:07.622Z,99808.97
2022-07-29T03:39:42.550Z,99816.97
2022-07-29T03:42:15.082Z,99817.88
2022-07-29T03:44:47.046Z,99815.22
2022-07-29T03:47:18.776Z,99811.63
2022-07-29T03:49:51.673Z,99808.97
2022-07-29T03:52:19.750Z,99810.75
2022-07-29T03:54:47.267Z,99815.16
2022-07-29T03:57:17.344Z,99809.78
2022-07-29T03:59:45.208Z,99813.34
2022-07-29T04:02:14.667Z,99815.09
2022-07-29T04:04:43.034Z,99818.66
2022-07-29T04:07:14.876Z,99816.81
2022-07-29T04:09:43.183Z,99817.69
2022-07-29T04:12:11.158Z,99821.22
2022-07-29T04:14:38.630Z,99823.88
2022-07-29T04:17:06.650Z,99820.31
2022-07-29T04:19:33.930Z,99815.00
2022-07-29T04:22:02.414Z,99809.72
2022-07-29T04:24:29.832Z,99818.56
2022-07-29T04:26:57.099Z,99828.28
2022-07-29T04:29:24.543Z,99831.81
2022-07-29T04:31:51.786Z,99836.22
2022-07-29T04:34:19.931Z,99832.69
2022-07-29T04:36:47.600Z,99843.34
2022-07-29T04:39:19.275Z,99839.84
2022-07-29T04:41:51.124Z,99834.53
2022-07-29T04:44:20.138Z,99827.41
2022-07-29T04:46:47.516Z,99829.25
2022-07-29T04:49:15.136Z,99827.47
2022-07-29T04:51:42.782Z,99837.25
2022-07-29T04:54:10.268Z,99844.31
2022-07-29T04:56:37.873Z,99855.88
2022-07-29T04:59:05.246Z,99866.50
2022-07-29T05:01:32.578Z,99870.03
2022-07-29T05:04:00.813Z,99870.97
2022-07-29T05:06:28.348Z,99870.94
2022-07-29T05:08:55.775Z,99870.00
2022-07-29T05:11:26.127Z,99869.22
2022-07-29T05:13:57.438Z,99864.78
2022-07-29T05:16:24.891Z,99868.38
2022-07-29T05:18:52.248Z,99869.31
2022-07-29T05:21:19.611Z,99874.66
2022-07-29T05:23:46.890Z,99885.38
2022-07-29T05:26:14.281Z,99887.16
2022-07-29T05:28:41.617Z,99884.53
2022-07-29T05:31:13.789Z,99885.47
2022-07-29T05:33:44.679Z,99888.13
2022-07-29T05:36:12.642Z,99891.72
2022-07-29T05:38:40.038Z,99889.94
2022-07-29T05:41:07.725Z,99884.59
2022-07-29T05:43:34.978Z,99891.66
2022-07-29T05:46:02.390Z,99895.22
2022-07-29T05:48:29.748Z,99885.47
2022-07-29T05:50:57.427Z,99886.34
2022-07-29T05:53:24.721Z,99889.94
2022-07-29T05:55:53.114Z,99892.63
2022-07-29T05:58:20.924Z,99901.50
2022-07-29T06:00:48.326Z,99904.16
2022-07-29T06:03:15.622Z,99896.16
2022-07-29T06:05:42.959Z,99900.66
2022-07-29T06:08:10.445Z,99897.97
2022-07-29T06:10:38.275Z,99890.84
2022-07-29T06:13:05.609Z,99891.75
2022-07-29T06:15:33.608Z,99893.50
2022-07-29T06:18:01.734Z,99893.53
2022-07-29T06:20:33.449Z,99896.22
2022-07-29T06:23:01.355Z,99900.69
2022-07-29T06:25:35.620Z,99891.81
2022-07-29T06:28:03.263Z,99901.56
2022-07-29T06:30:31.098Z,99892.69
2022-07-29T06:32:58.652Z,99905.13
2022-07-29T06:35:39.166Z,99894.47
2022-07-29T06:38:30.327Z,99889.13
2022-07-29T06:41:01.213Z,99890.03
2022-07-29T06:43:50.557Z,99899.81
2022-07-29T06:46:23.944Z,99901.56
2022-07-29T06:48:53.311Z,99903.34
2022-07-29T06:51:23.213Z,99901.53
2022-07-29T06:53:59.919Z,99899.78
2022-07-29T06:56:40.457Z,99898.88
2022-07-29T06:59:11.067Z,99901.50
2022-07-29T07:01:43.765Z,99904.19
2022-07-29T07:04:12.490Z,99905.97
2022-07-29T07:06:40.133Z,99901.47
2022-07-29T07:09:07.668Z,99898.75
2022-07-29T07:11:35.323Z,99899.66
2022-07-29T07:14:04.112Z,99902.31
2022-07-29T07:16:33.146Z,99898.75
2022-07-29T07:19:01.501Z,99897.00
2022-07-29T07:21:30.535Z,99897.84
2022-07-29T07:23:59.792Z,99887.97
2022-07-29T07:26:28.485Z,99885.25
2022-07-29T07:28:55.880Z,99886.97
2022-07-29T07:31:23.607Z,99886.06
2022-07-29T07:33:51.066Z,99885.09
2022-07-29T07:36:18.344Z,99886.84
2022-07-29T07:38:45.772Z,99884.09
2022-07-29T07:41:13.169Z,99880.56
2022-07-29T07:43:40.400Z,99884.88
2022-07-29T07:46:08.071Z,99886.31
2022-07-29T07:48:37.036Z,99878.03
2022-07-29T07:51:04.725Z,99874.25
2022-07-29T07:53:32.525Z,99875.94
2022-07-29T07:56:10.620Z,99871.31
2022-07-29T07:58:39.631Z,99870.31
2022-07-29T08:01:07.211Z,99865.81
2022-07-29T08:03:34.972Z,99859.53
2022-07-29T08:06:03.764Z,99859.69
2022-07-29T08:08:31.024Z,99863.50
2022-07-29T08:10:58.333Z,99872.56
2022-07-29T08:13:31.340Z,99867.44
2022-07-29T08:16:01.230Z,99863.78
2022-07-29T08:18:32.199Z,99867.28
2022-07-29T08:21:00.292Z,99865.34
2022-07-29T08:23:47.115Z,99858.75
2022-07-29T08:26:16.513Z,99851.53
2022-07-29T08:28:47.122Z,99862.09
2022-07-29T08:31:14.960Z,99862.00
2022-07-29T08:33:42.970Z,99860.06
2022-07-29T08:36:10.729Z,99863.34
2022-07-29T08:38:38.086Z,99863.09
2022-07-29T08:41:05.571Z,99867.59
2022-07-29T08:43:33.098Z,99868.28
2022-07-29T08:46:01.450Z,99868.28
2022-07-29T08:48:28.751Z,99862.69
2022-07-29T08:50:57.890Z,99873.41
2022-07-29T08:53:29.679Z,99868.72
2022-07-29T08:55:58.022Z,99862.41
2022-07-29T08:58:26.003Z,99864.63
2022-07-29T09:00:58.186Z,99870.91
2022-07-29T09:03:33.360Z,99858.50
2022-07-29T09:06:00.856Z,99861.97
2022-07-29T09:08:29.160Z,99861.16
2022-07-29T09:11:00.979Z,99856.22
2022-07-29T09:13:33.785Z,99849.91
2022-07-29T09:16:07.020Z,99844.97
2022-07-29T09:18:45.111Z,99848.03
2022-07-29T09:21:35.304Z,99845.88
2022-07-29T09:24:13.992Z,99847.22
2022-07-29T09:26:46.846Z,99840.72
2022-07-29T09:29:19.178Z,99833.00
2022-07-29T09:31:53.463Z,99838.44
2022-07-29T09:34:29.555Z,99840.13
2022-07-29T09:36:57.328Z,99835.13
2022-07-29T09:39:47.214Z,99839.44
2022-07-29T09:42:16.022Z,99839.00
2022-07-29T09:44:51.670Z,99838.84
2022-07-29T09:47:25.032Z,99829.56
2022-07-29T09:50:00.153Z,99831.53
2022-07-29T09:52:31.924Z,99827.25
2022-07-29T09:55:13.859Z,99825.88
2022-07-29T09:57:47.940Z,99826.47
2022-07-29T10:00:20.047Z,99827.06
2022-07-29T10:02:48.673Z,99818.00
2022-07-29T10:05:24.390Z,99811.38
2022-07-29T10:07:58.498Z,99806.78
2022-07-29T10:10:35.335Z,99809.38
2022-07-29T10:13:15.323Z,99801.31
2022-07-29T10:15:47.124Z,99788.63
2022-07-29T10:18:18.363Z,99791.47
2022-07-29T10:20:46.276Z,99795.91
2022-07-29T10:23:13.616Z,99794.31
2022-07-29T10:25:46.018Z,99789.50
2022-07-29T10:28:16.703Z,99785.75
2022-07-29T10:30:46.800Z,99785.19
2022-07-29T10:33:39.715Z,99778.84
2022-07-29T10:36:53.182Z,99775.84
2022-07-29T10:39:56.448Z,99775.16
2022-07-29T10:42:33.642Z,99778.69
2022-07-29T10:45:04.917Z,99777.16
2022-07-29T10:47:35.212Z,99771.72
2022-07-29T10:50:07.451Z,99760.00
2022-07-29T10:52:59.696Z,99763.00
2022-07-29T10:55:45.555Z,99760.94
2022-07-29T10:58:27.078Z,99753.53
2022-07-29T11:00:56.389Z,99756.03
2022-07-29T11:03:50.802Z,99755.47
2022-07-29T11:06:26.959Z,99756.31
2022-07-29T11:09:25.895Z,99751.16
2022-07-29T11:12:03.786Z,99761.53
2022-07-29T11:15:02.605Z,99745.34
2022-07-29T11:17:47.078Z,99744.09
2022-07-29T11:20:49.714Z,99748.31
2022-07-29T11:23:33.402Z,99747.78
2022-07-29T11:26:26.684Z,99744.69
2022-07-29T11:28:55.719Z,99738.59
2022-07-29T11:31:49.235Z,99729.19
2022-07-29T11:34:33.231Z,99722.25
2022-07-29T11:37:11.969Z,99715.00
2022-07-29T11:39:49.292Z,99711.84
2022-07-29T11:42:28.297Z,99721.19
2022-07-29T11:45:44.949Z,99725.81
2022-07-29T11:48:27.854Z,99729.31
2022-07-29T11:50:50.243Z,99724.88
2022-07-29T11:53:17.702Z,99719.75
2022-07-29T11:55:51.583Z,99719.91
2022-07-29T11:58:26.068Z,99730.59
2022-07-29T12:00:55.747Z,99729.53
2022-07-29T12:03:34.911Z,99725.63
2022-07-29T12:06:18.003Z,99721.53
2022-07-29T12:08:46.020Z,99716.72
2022-07-29T12:11:23.411Z,99716.03
2022-07-29T12:13:52.688Z,99720.34
2022-07-29T12:16:26.033Z,99719.78
2022-07-29T12:19:03.659Z,99713.88
2022-07-29T12:21:56.873Z,99712.94
2022-07-29T12:24:27.366Z,99717.13
2022-07-29T12:26:59.049Z,99700.19
2022-07-29T12:29:34.760Z,99705.59
2022-07-29T12:32:15.083Z,99702.72
2022-07-29T12:34:47.550Z,99691.50
2022-07-29T12:37:15.062Z,99695.53
2022-07-29T12:39:42.446Z,99685.28
2022-07-29T12:42:18.653Z,99687.69
2022-07-29T12:44:52.454Z,99683.59
2022-07-29T12:47:21.168Z,99685.34
2022-07-29T12:49:50.238Z,99673.75
2022-07-29T12:52:35.388Z,99668.53
2022-07-29T12:55:03.170Z,99663.75
2022-07-29T12:57:32.558Z,99662.00
2022-07-29T13:00:13.944Z,99656.25
2022-07-29T13:02:44.425Z,99643.94
2022-07-29T13:05:13.759Z,99639.25
2022-07-29T13:07:55.070Z,99639.56
2022-07-29T13:10:25.916Z,99626.59
2022-07-29T13:13:11.985Z,99620.72
2022-07-29T13:15:45.417Z,99616.69
2022-07-29T13:18:37.029Z,99613.00
2022-07-29T13:21:16.088Z,99622.03
2022-07-29T13:23:44.174Z,99617.78
2022-07-29T13:26:12.727Z,99614.59
2022-07-29T13:28:40.866Z,99618.13
2022-07-29T13:31:12.130Z,99608.31
2022-07-29T13:33:39.590Z,99615.00
2022-07-29T13:36:07.485Z,99600.88
2022-07-29T13:38:34.962Z,99602.63
2022-07-29T13:41:03.300Z,99595.25
2022-07-29T13:43:30.629Z,99598.50
2022-07-29T13:45:58.009Z,99604.88
2022-07-29T13:48:25.305Z,99603.09
2022-07-29T13:50:52.781Z,99601.56
2022-07-29T13:53:20.485Z,99594.59
2022-07-29T13:55:55.258Z,99589.53
2022-07-29T13:58:22.810Z,99581.88
2022-07-29T14:00:50.221Z,99573.41
2022-07-29T14:03:17.731Z,99571.97
2022-07-29T14:05:45.025Z,99573.72
2022-07-29T14:08:12.343Z,99576.31
2022-07-29T14:10:39.804Z,99573.28
2022-07-29T14:13:07.249Z,99570.22
2022-07-29T14:15:53.777Z,99578.44
2022-07-29T14:18:21.396Z,99577.94
2022-07-29T14:20:49.116Z,99577.75
2022-07-29T14:23:16.534Z,99583.66
2022-07-29T14:25:44.488Z,99582.69
2022-07-29T14:28:12.621Z,99583.50
2022-07-29T14:30:42.136Z,99575.28
2022-07-29T14:33:09.485Z,99574.34
2022-07-29T14:35:36.701Z,99573.06
2022-07-29T14:38:04.560Z,99569.28
2022-07-29T14:40:31.869Z,99569.94
2022-07-29T14:42:59.184Z,99562.28
2022-07-29T14:45:26.533Z,99554.69
2022-07-29T14:47:57.194Z,99555.00
2022-07-29T14:50:31.641Z,99559.22
2022-07-29T14:53:01.703Z,99550.19
2022-07-29T14:55:29.196Z,99555.34
2022-07-29T14:58:07.764Z,99554.59
2022-07-29T15:00:38.559Z,99560.22
2022-07-29T15:03:06.445Z,99551.59
2022-07-29T15:05:38.854Z,99553.69
2022-07-29T15:08:06.209Z,99546.56
2022-07-29T15:10:33.698Z,99544.69
2022-07-29T15:13:01.007Z,99565.69
2022-07-29T15:15:31.040Z,99557.50
2022-07-29T15:17:58.349Z,99561.28
2022-07-29T15:20:27.961Z,99583.38
2022-07-29T15:22:56.529Z,99582.84
2022-07-29T15:25:25.556Z,99585.03
2022-07-29T15:28:00.945Z,99591.56
2022-07-29T15:30:34.069Z,99596.34
2022-07-29T15:33:04.076Z,99604.69
2022-07-29T15:35:32.137Z,99597.44
2022-07-29T15:37:59.864Z,99610.97
2022-07-29T15:40:27.511Z,99619.44
2022-07-29T15:42:55.177Z,99651.47
2022-07-29T15:45:22.714Z,99663.25
2022-07-29T15:47:50.142Z,99696.63
2022-07-29T15:50:18.690Z,99726.09
2022-07-29T15:52:46.937Z,99756.75
2022-07-29T15:55:15.677Z,99788.75
2022-07-29T15:57:42.990Z,99810.06
2022-07-29T16:00:11.458Z,99809.19
2022-07-29T16:02:38.731Z,99805.47
2022-07-29T16:05:09.572Z,99775.44
2022-07-29T16:07:37.710Z,99727.63
2022-07-29T16:10:07.798Z,99690.72
2022-07-29T16:12:50.755Z,99711.97
2022-07-29T16:15:18.371Z,99729.88
2022-07-29T16:17:50.333Z,99738.41
2022-07-29T16:20:17.951Z,99745.47
2022-07-29T16:22:45.966Z,99737.78
2022-07-29T16:25:13.248Z,99736.91
2022-07-29T16:27:40.496Z,99735.31
2022-07-29T16:30:09.884Z,99730.94
2022-07-29T16:32:37.801Z,99745.13
2022-07-29T16:35:06.383Z,99761.00
2022-07-29T16:37:35.514Z,99768.97
2022-07-29T16:40:06.291Z,99824.81
2022-07-29T16:42:46.736Z,99845.69
2022-07-29T16:45:18.021Z,99843.59
2022-07-29T16:47:48.839Z,99839.84
2022-07-29T16:50:17.924Z,99821.00
2022-07-29T16:52:45.392Z,99806.13
2022-07-29T16:55:15.116Z,99806.91
2022-07-29T16:57:43.834Z,99822.72
2022-07-29T17:00:17.365Z,99835.25
2022-07-29T17:02:47.361Z,99831.50
2022-07-29T17:05:15.791Z,99817.56
2022-07-29T17:07:43.711Z,99836.94
2022-07-29T17:10:11.847Z,99822.84
2022-07-29T17:12:41.278Z,99814.91
2022-07-29T17:15:13.989Z,99824.84
2022-07-29T17:17:55.348Z,99839.25
2022-07-29T17:20:26.493Z,99841.81
2022-07-29T17:22:55.328Z,99842.69
2022-07-29T17:25:24.015Z,99843.66
2022-07-29T17:27:51.407Z,99842.84
2022-07-29T17:30:22.484Z,99827.78
2022-07-29T17:32:49.946Z,99817.16
2022-07-29T17:35:36.168Z,99808.34
2022-07-29T17:38:04.132Z,99803.97
2022-07-29T17:40:31.603Z,99797.75
2022-07-29T17:42:59.092Z,99808.19
2022-07-29T17:45:26.439Z,99820.59
2022-07-29T17:48:13.723Z,99812.75
2022-07-29T17:50:41.033Z,99817.16
2022-07-29T17:53:15.528Z,99830.44
2022-07-29T17:55:46.055Z,99838.47
2022-07-29T17:58:13.572Z,99846.56
2022-07-29T18:00:42.181Z,99835.97
2022-07-29T18:03:10.302Z,99836.03
2022-07-29T18:05:37.689Z,99836.88
2022-07-29T18:08:05.490Z,99828.78
2022-07-29T18:10:33.114Z,99834.88
2022-07-29T18:13:00.506Z,99834.00
2022-07-29T18:15:28.022Z,99828.66
2022-07-29T18:17:57.025Z,99801.31
2022-07-29T18:20:26.813Z,99780.13
2022-07-29T18:22:54.130Z,99766.84
2022-07-29T18:25:22.038Z,99775.75
2022-07-29T18:27:50.246Z,99785.50
2022-07-29T18:30:17.722Z,99781.06
2022-07-29T18:32:59.422Z,99772.13
2022-07-29T18:35:33.191Z,99757.97
2022-07-29T18:38:03.131Z,99765.13
2022-07-29T18:40:31.038Z,99764.38
2022-07-29T18:42:58.291Z,99749.34
2022-07-29T18:45:28.198Z,99758.91
2022-07-29T18:47:57.027Z,99757.13
2022-07-29T18:50:29.655Z,99760.59
2022-07-29T18:52:58.999Z,99759.69
2022-07-29T18:55:26.819Z,99759.50
2022-07-29T18:57:56.547Z,99768.22
2022-07-29T19:00:25.749Z,99762.88
2022-07-29T19:02:53.734Z,99769.16
2022-07-29T19:05:23.163Z,99788.72
2022-07-29T19:07:50.808Z,99789.59
2022-07-29T19:10:18.330Z,99797.59
2022-07-29T19:12:45.662Z,99809.22
2022-07-29T19:15:13.091Z,99805.81
2022-07-29T19:17:48.868Z,99808.50
2022-07-29T19:20:16.625Z,99803.88
2022-07-29T19:22:44.141Z,99808.16
2022-07-29T19:25:11.494Z,99818.69
2022-07-29T19:27:38.898Z,99826.75
2022-07-29T19:30:09.305Z,99837.47
2022-07-29T19:32:37.331Z,99849.03
2022-07-29T19:35:24.391Z,99842.75
2022-07-29T19:37:56.007Z,99848.06
2022-07-29T19:40:23.617Z,99853.16
2022-07-29T19:42:52.743Z,99857.72
2022-07-29T19:45:25.833Z,99858.63
2022-07-29T19:48:01.141Z,99863.94
2022-07-29T19:50:37.994Z,99863.81
2022-07-29T19:53:05.740Z,99866.50
2022-07-29T19:55:33.417Z,99860.41
2022-07-29T19:58:02.309Z,99863.88
2022-07-29T20:00:32.696Z,99871.81
2022-07-29T20:03:00.286Z,99868.34
2022-07-29T20:05:28.394Z,99867.38
2022-07-29T20:07:56.358Z,99874.41
2022-07-29T20:10:24.054Z,99877.91
2022-07-29T20:12:51.436Z,99872.66
2022-07-29T20:15:21.266Z,99881.53
2022-07-29T20:17:48.725Z,99880.59
2022-07-29T20:20:16.205Z,99885.03
2022-07-29T20:22:44.289Z,99885.97
2022-07-29T20:25:11.947Z,99891.28
2022-07-29T20:27:40.559Z,99902.63
2022-07-29T20:30:09.020Z,99896.34
2022-07-29T20:32:44.850Z,99899.91
2022-07-29T20:35:13.470Z,99913.84
2022-07-29T20:37:50.430Z,99921.88
2022-07-29T20:40:27.712Z,99923.78
2022-07-29T20:42:56.127Z,99921.09
2022-07-29T20:45:24.557Z,99907.94
2022-07-29T20:47:53.685Z,99905.34
2022-07-29T20:50:23.660Z,99902.69
2022-07-29T20:52:53.096Z,99901.81
2022-07-29T20:55:21.016Z,99888.53
2022-07-29T20:57:51.117Z,99882.31
2022-07-29T21:00:20.749Z,99887.69
2022-07-29T21:02:51.029Z,99891.16
2022-07-29T21:05:18.473Z,99895.59
2022-07-29T21:07:48.341Z,99900.91
2022-07-29T21:10:18.240Z,99907.00
2022-07-29T21:12:49.368Z,99898.25
2022-07-29T21:15:21.564Z,99898.25
2022-07-29T21:17:59.669Z,99895.56
2022-07-29T21:20:32.494Z,99885.88
2022-07-29T21:23:00.390Z,99890.25
2022-07-29T21:25:31.479Z,99885.75
2022-07-29T21:28:17.523Z,99898.13
2022-07-29T21:30:47.026Z,99897.19
2022-07-29T21:33:14.283Z,99897.13
2022-07-29T21:36:14.879Z,99908.56
2022-07-29T21:38:29.902Z,99909.47
2022-07-29T21:40:58.433Z,99909.34
2022-07-29T21:43:28.562Z,99905.81
2022-07-29T21:45:58.010Z,99911.97
2022-07-29T21:48:28.665Z,99912.81
2022-07-29T21:50:56.801Z,99905.88
2022-07-29T21:53:26.864Z,99913.84
2022-07-29T21:55:55.525Z,99912.84
2022-07-29T21:58:23.692Z,99910.22
2022-07-29T22:00:51.147Z,99903.09
2022-07-29T22:03:18.552Z,99908.44
2022-07-29T22:05:46.524Z,99904.94
2022-07-29T22:08:14.038Z,99909.28
2022-07-29T22:10:41.536Z,99911.03
2022-07-29T22:13:08.977Z,99915.47
2022-07-29T22:15:36.498Z,99911.91
2022-07-29T22:18:04.093Z,99911.00
2022-07-29T22:20:31.758Z,99914.53
2022-07-29T22:22:59.129Z,99918.91
2022-07-29T22:25:27.674Z,99916.22
2022-07-29T22:27:54.921Z,99915.34
2022-07-29T22:30:22.174Z,99910.00
2022-07-29T22:32:49.802Z,99910.84
2022-07-29T22:35:17.686Z,99920.53
2022-07-29T22:37:45.241Z,99916.09
2022-07-29T22:40:13.073Z,99912.72
2022-07-29T22:42:43.636Z,99906.56
2022-07-29T22:45:11.476Z,99916.25
2022-07-29T22:47:48.051Z,99916.13
2022-07-29T22:50:17.267Z,99904.66
2022-07-29T22:52:45.996Z,99907.25
2022-07-29T22:55:14.325Z,99912.56
2022-07-29T22:57:42.229Z,99913.41
2022-07-29T23:00:11.161Z,99917.81
2022-07-29T23:02:40.206Z,99917.84
2022-07-29T23:05:09.073Z,99916.97
2022-07-29T23:07:36.630Z,99906.34
2022-07-29T23:10:05.448Z,99921.28
2022-07-29T23:12:33.114Z,99919.47
2022-07-29T23:15:00.430Z,99919.50
2022-07-29T23:17:27.781Z,99916.00
2022-07-29T23:19:55.121Z,99913.31
2022-07-29T23:22:22.746Z,99915.00
2022-07-29T23:24:50.233Z,99919.47
2022-07-29T23:27:18.221Z,99913.28
2022-07-29T23:29:45.846Z,99907.09
2022-07-29T23:32:16.363Z,99904.47
2022-07-29T23:34:43.858Z,99901.03
2022-07-29T23:37:11.289Z,99899.25
2022-07-29T23:39:38.718Z,99895.66
2022-07-29T23:42:06.506Z,99894.75
2022-07-29T23:44:35.539Z,99890.41
2022-07-29T23:47:07.920Z,99891.31
2022-07-29T23:49:35.811Z,99891.31
2022-07-29T23:52:03.411Z,99894.81
2022-07-29T23:54:30.755Z,99896.56
2022-07-29T23:56:58.911Z,99900.03
2022-07-29T23:59:29.598Z,99900.91
